Richmond, CA

9:37 AM PST on December 09, 2016 (GMT -0800)
El Cerrito / Richmond Heights | | Change Station

Elev 300 ft 37.94 °N, 122.31 °W | Updated 13 minutes ago

Overcast
Overcast
56.1 °F
Feels Like 56.1 °F
N
4.0
Wind Variable Wind from SSE
Gusts 8.0 mph

Today
High -- | Low -- °F
--% Chance of Precip.
Yesterday
High -- | Low -- °F
Precip. -- in
Pressure 30.21 in
Visibility 0.2 miles
Clouds
Dew Point 56 °F
Humidity 100%
Rainfall 0.07 in
Snow Depth Not available.
7:13 AM 4:49 PM
Waxing Gibbous, 75% visible
METAR KCCR 091653Z 00000KT 1/4SM FG VV002 09/08 A3025 RMK AO2 SLP228 T00940083
Pressure 30.21 in
Visibility 0.2 miles
Clouds
Dew Point 56 °F
Humidity 100%
Rainfall 0.07 in
Snow Depth Not available.
7:13 AM 4:49 PM
Waxing Gibbous, 75% visible
METAR KCCR 091653Z 00000KT 1/4SM FG VV002 09/08 A3025 RMK AO2 SLP228 T00940083

10-Day Weather Forecast

Almanac

Astronomy

Dec. 09, 2016 Rise Set
Actual Time
Civil Twilight
Nautical Twilight
Astronomical Twilight
Moon
Length of Visible Light
Length of Day
Tomorrow will be .
, % of the Moon is Illuminated

Today's Extremes

State Highs State Lows

Community

WunderPhotos

Upload Photos

1,956,462 photos uploaded!

WunderBlog® & News

Nearby

Air Quality

  Air Quality AQ Index Pollutant
Not available.

Snow Depth

Station Depth Elevation

Earthquake Activity

City Distance Mag. Time & Date
Minimum magnitude displayed is 2.5.

Coastal Water Temperatures

Place Temperature

Stations

Nearby Weather Stations

Station Location Temp. Windchill Dew Point Humidity Wind Precip. Elev Updated Type
                   

Watches & Warnings

There are currently no watches in effect.